Terminal Aerodrome Forecast
Issued by NWS

Home | Current Version | Previous Version | Text Only | Print | Product List | Glossary On
Versions: 1 2 3 4 5 6 7 8 9 10 11 12 13
000
FTUS42 KMHX 270500
TAFISO
TAF
KISO 270534Z 2706/2806 32010G18KT P6SM VCSH OVC015
     FM271700 33012G18KT P6SM SCT015 OVC025
     FM272000 34008KT P6SM OVC035
     FM280000 32005KT P6SM SCT040
      AMD LTD TO CLD VIS AND WIND=

USA.gov is the U.S. government's official web portal to all federal, state and local government web resources and services.